sensor_id;sensor_type;location;lat;lon;timestamp;P1;durP1;ratioP1;P2;durP2;ratioP2
24443;SDS011;13346;50.984;5.822;2023-04-25T00:01:41;6.07;;;4.17;;
24443;SDS011;13346;50.984;5.822;2023-04-25T00:04:09;5.00;;;3.70;;
24443;SDS011;13346;50.984;5.822;2023-04-25T00:06:37;8.63;;;4.73;;
24443;SDS011;13346;50.984;5.822;2023-04-25T00:09:04;6.83;;;4.13;;
24443;SDS011;13346;50.984;5.822;2023-04-25T00:11:34;8.90;;;3.80;;
24443;SDS011;13346;50.984;5.822;2023-04-25T00:14:02;5.70;;;3.97;;
24443;SDS011;13346;50.984;5.822;2023-04-25T00:16:30;10.50;;;4.93;;
24443;SDS011;13346;50.984;5.822;2023-04-25T00:19:01;5.33;;;3.60;;
24443;SDS011;13346;50.984;5.822;2023-04-25T00:21:29;11.23;;;3.70;;
24443;SDS011;13346;50.984;5.822;2023-04-25T00:23:57;10.60;;;4.97;;
24443;SDS011;13346;50.984;5.822;2023-04-25T00:26:25;9.53;;;4.30;;
24443;SDS011;13346;50.984;5.822;2023-04-25T00:28:53;8.93;;;4.40;;
24443;SDS011;13346;50.984;5.822;2023-04-25T00:31:20;11.93;;;4.27;;
24443;SDS011;13346;50.984;5.822;2023-04-25T00:33:48;8.00;;;5.17;;
24443;SDS011;13346;50.984;5.822;2023-04-25T00:36:16;10.27;;;4.40;;
24443;SDS011;13346;50.984;5.822;2023-04-25T00:38:44;10.40;;;4.17;;
24443;SDS011;13346;50.984;5.822;2023-04-25T00:41:11;6.80;;;4.20;;
24443;SDS011;13346;50.984;5.822;2023-04-25T00:43:38;9.70;;;3.63;;
24443;SDS011;13346;50.984;5.822;2023-04-25T00:46:07;7.63;;;3.90;;
24443;SDS011;13346;50.984;5.822;2023-04-25T00:48:34;5.93;;;3.43;;
24443;SDS011;13346;50.984;5.822;2023-04-25T00:51:01;6.40;;;3.80;;
24443;SDS011;13346;50.984;5.822;2023-04-25T00:53:30;13.57;;;5.03;;
24443;SDS011;13346;50.984;5.822;2023-04-25T00:55:58;8.37;;;4.70;;
24443;SDS011;13346;50.984;5.822;2023-04-25T00:58:25;5.57;;;3.50;;
24443;SDS011;13346;50.984;5.822;2023-04-25T01:00:52;11.00;;;4.33;;
24443;SDS011;13346;50.984;5.822;2023-04-25T01:03:21;9.60;;;3.87;;
24443;SDS011;13346;50.984;5.822;2023-04-25T01:05:49;6.57;;;4.03;;
24443;SDS011;13346;50.984;5.822;2023-04-25T01:08:17;6.67;;;3.97;;
24443;SDS011;13346;50.984;5.822;2023-04-25T01:10:46;11.03;;;4.10;;
24443;SDS011;13346;50.984;5.822;2023-04-25T01:13:13;13.73;;;4.47;;
24443;SDS011;13346;50.984;5.822;2023-04-25T01:15:40;9.93;;;4.53;;
24443;SDS011;13346;50.984;5.822;2023-04-25T01:18:07;8.33;;;4.00;;
24443;SDS011;13346;50.984;5.822;2023-04-25T01:20:35;5.67;;;3.23;;
24443;SDS011;13346;50.984;5.822;2023-04-25T01:23:06;11.30;;;4.97;;
24443;SDS011;13346;50.984;5.822;2023-04-25T01:25:33;8.30;;;4.33;;
24443;SDS011;13346;50.984;5.822;2023-04-25T01:28:01;9.00;;;4.30;;
24443;SDS011;13346;50.984;5.822;2023-04-25T01:30:28;9.13;;;3.93;;
24443;SDS011;13346;50.984;5.822;2023-04-25T01:32:56;11.77;;;3.93;;
24443;SDS011;13346;50.984;5.822;2023-04-25T01:35:24;10.97;;;4.43;;
24443;SDS011;13346;50.984;5.822;2023-04-25T01:37:51;6.23;;;3.53;;
24443;SDS011;13346;50.984;5.822;2023-04-25T01:40:20;8.07;;;4.33;;
24443;SDS011;13346;50.984;5.822;2023-04-25T01:42:48;11.80;;;3.80;;
24443;SDS011;13346;50.984;5.822;2023-04-25T01:45:15;13.73;;;4.57;;
24443;SDS011;13346;50.984;5.822;2023-04-25T01:47:44;5.03;;;3.20;;
24443;SDS011;13346;50.984;5.822;2023-04-25T01:50:14;5.37;;;3.40;;
24443;SDS011;13346;50.984;5.822;2023-04-25T01:52:42;10.10;;;5.27;;
24443;SDS011;13346;50.984;5.822;2023-04-25T01:55:09;11.53;;;4.17;;
24443;SDS011;13346;50.984;5.822;2023-04-25T01:57:38;6.47;;;3.73;;
24443;SDS011;13346;50.984;5.822;2023-04-25T02:00:07;14.13;;;4.03;;
24443;SDS011;13346;50.984;5.822;2023-04-25T02:02:35;6.70;;;3.77;;
24443;SDS011;13346;50.984;5.822;2023-04-25T02:05:02;8.97;;;3.80;;
24443;SDS011;13346;50.984;5.822;2023-04-25T02:07:30;7.37;;;3.73;;
24443;SDS011;13346;50.984;5.822;2023-04-25T02:09:58;6.23;;;3.67;;
24443;SDS011;13346;50.984;5.822;2023-04-25T02:12:26;5.23;;;3.93;;
24443;SDS011;13346;50.984;5.822;2023-04-25T02:14:55;11.23;;;4.73;;
24443;SDS011;13346;50.984;5.822;2023-04-25T02:17:22;8.93;;;4.37;;
24443;SDS011;13346;50.984;5.822;2023-04-25T02:19:50;5.67;;;3.27;;
24443;SDS011;13346;50.984;5.822;2023-04-25T02:22:17;6.67;;;3.67;;
24443;SDS011;13346;50.984;5.822;2023-04-25T02:24:45;7.90;;;4.10;;
24443;SDS011;13346;50.984;5.822;2023-04-25T02:27:12;6.70;;;3.70;;
24443;SDS011;13346;50.984;5.822;2023-04-25T02:29:39;7.33;;;3.70;;
24443;SDS011;13346;50.984;5.822;2023-04-25T02:32:08;8.97;;;3.93;;
24443;SDS011;13346;50.984;5.822;2023-04-25T02:34:35;11.13;;;4.63;;
24443;SDS011;13346;50.984;5.822;2023-04-25T02:37:02;10.33;;;4.27;;
24443;SDS011;13346;50.984;5.822;2023-04-25T02:39:29;5.37;;;4.03;;
24443;SDS011;13346;50.984;5.822;2023-04-25T02:41:57;7.80;;;4.23;;
24443;SDS011;13346;50.984;5.822;2023-04-25T02:44:24;7.73;;;4.10;;
24443;SDS011;13346;50.984;5.822;2023-04-25T02:46:51;11.30;;;4.83;;
24443;SDS011;13346;50.984;5.822;2023-04-25T02:49:20;8.20;;;4.03;;
24443;SDS011;13346;50.984;5.822;2023-04-25T02:51:47;10.83;;;4.47;;
24443;SDS011;13346;50.984;5.822;2023-04-25T02:54:14;11.67;;;3.70;;
24443;SDS011;13346;50.984;5.822;2023-04-25T02:56:41;8.17;;;4.17;;
24443;SDS011;13346;50.984;5.822;2023-04-25T02:59:08;6.80;;;3.87;;
24443;SDS011;13346;50.984;5.822;2023-04-25T03:01:37;5.50;;;3.67;;
24443;SDS011;13346;50.984;5.822;2023-04-25T03:04:04;7.30;;;4.13;;
24443;SDS011;13346;50.984;5.822;2023-04-25T03:06:32;7.93;;;4.23;;
24443;SDS011;13346;50.984;5.822;2023-04-25T03:09:00;12.17;;;4.17;;
24443;SDS011;13346;50.984;5.822;2023-04-25T03:11:27;8.60;;;4.97;;
24443;SDS011;13346;50.984;5.822;2023-04-25T03:13:54;6.53;;;3.87;;
24443;SDS011;13346;50.984;5.822;2023-04-25T03:16:21;9.60;;;4.20;;
24443;SDS011;13346;50.984;5.822;2023-04-25T03:18:48;11.90;;;3.90;;
24443;SDS011;13346;50.984;5.822;2023-04-25T03:21:16;7.03;;;3.30;;
24443;SDS011;13346;50.984;5.822;2023-04-25T03:23:44;10.07;;;3.70;;
24443;SDS011;13346;50.984;5.822;2023-04-25T03:26:12;8.93;;;3.80;;
24443;SDS011;13346;50.984;5.822;2023-04-25T03:28:39;10.00;;;4.53;;
24443;SDS011;13346;50.984;5.822;2023-04-25T03:31:06;8.30;;;4.53;;
24443;SDS011;13346;50.984;5.822;2023-04-25T03:33:33;9.07;;;4.13;;
24443;SDS011;13346;50.984;5.822;2023-04-25T03:36:00;4.67;;;3.63;;
24443;SDS011;13346;50.984;5.822;2023-04-25T03:38:28;10.70;;;4.13;;
24443;SDS011;13346;50.984;5.822;2023-04-25T03:40:56;6.67;;;4.00;;
24443;SDS011;13346;50.984;5.822;2023-04-25T03:43:24;6.87;;;3.83;;
24443;SDS011;13346;50.984;5.822;2023-04-25T03:45:51;7.87;;;4.10;;
24443;SDS011;13346;50.984;5.822;2023-04-25T03:48:18;6.07;;;4.00;;
24443;SDS011;13346;50.984;5.822;2023-04-25T03:50:46;9.17;;;4.77;;
24443;SDS011;13346;50.984;5.822;2023-04-25T03:53:13;13.00;;;4.33;;
24443;SDS011;13346;50.984;5.822;2023-04-25T03:55:41;9.07;;;3.73;;
24443;SDS011;13346;50.984;5.822;2023-04-25T03:58:09;7.87;;;5.20;;
24443;SDS011;13346;50.984;5.822;2023-04-25T04:00:36;7.60;;;3.63;;
24443;SDS011;13346;50.984;5.822;2023-04-25T04:03:04;15.43;;;5.47;;
24443;SDS011;13346;50.984;5.822;2023-04-25T04:05:31;11.87;;;3.77;;
24443;SDS011;13346;50.984;5.822;2023-04-25T04:07:58;11.00;;;4.37;;
24443;SDS011;13346;50.984;5.822;2023-04-25T04:10:25;11.53;;;4.27;;
24443;SDS011;13346;50.984;5.822;2023-04-25T04:12:52;6.57;;;4.63;;
24443;SDS011;13346;50.984;5.822;2023-04-25T04:15:21;8.23;;;5.53;;
24443;SDS011;13346;50.984;5.822;2023-04-25T04:17:48;10.93;;;6.23;;
24443;SDS011;13346;50.984;5.822;2023-04-25T04:20:15;7.97;;;4.93;;
24443;SDS011;13346;50.984;5.822;2023-04-25T04:22:43;4.93;;;4.07;;
24443;SDS011;13346;50.984;5.822;2023-04-25T04:25:10;8.23;;;4.17;;
24443;SDS011;13346;50.984;5.822;2023-04-25T04:27:37;7.13;;;4.30;;
24443;SDS011;13346;50.984;5.822;2023-04-25T04:30:06;9.93;;;4.30;;
24443;SDS011;13346;50.984;5.822;2023-04-25T04:32:36;13.63;;;5.93;;
24443;SDS011;13346;50.984;5.822;2023-04-25T04:35:03;8.30;;;4.73;;
24443;SDS011;13346;50.984;5.822;2023-04-25T04:37:31;8.93;;;4.43;;
24443;SDS011;13346;50.984;5.822;2023-04-25T04:39:59;6.57;;;4.60;;
24443;SDS011;13346;50.984;5.822;2023-04-25T04:42:30;9.63;;;4.03;;
24443;SDS011;13346;50.984;5.822;2023-04-25T04:44:57;13.13;;;4.80;;
24443;SDS011;13346;50.984;5.822;2023-04-25T04:47:26;9.33;;;5.07;;
24443;SDS011;13346;50.984;5.822;2023-04-25T04:49:57;9.63;;;4.20;;
24443;SDS011;13346;50.984;5.822;2023-04-25T04:52:25;13.17;;;4.80;;
24443;SDS011;13346;50.984;5.822;2023-04-25T04:54:52;7.07;;;4.73;;
24443;SDS011;13346;50.984;5.822;2023-04-25T04:57:19;10.47;;;4.80;;
24443;SDS011;13346;50.984;5.822;2023-04-25T04:59:46;10.50;;;5.00;;
24443;SDS011;13346;50.984;5.822;2023-04-25T05:02:15;14.57;;;5.90;;
24443;SDS011;13346;50.984;5.822;2023-04-25T05:04:42;7.77;;;4.27;;
24443;SDS011;13346;50.984;5.822;2023-04-25T05:07:10;11.07;;;5.13;;
24443;SDS011;13346;50.984;5.822;2023-04-25T05:09:37;6.03;;;4.70;;
24443;SDS011;13346;50.984;5.822;2023-04-25T05:12:05;15.57;;;5.43;;
24443;SDS011;13346;50.984;5.822;2023-04-25T05:14:32;14.50;;;4.43;;
24443;SDS011;13346;50.984;5.822;2023-04-25T05:17:00;7.30;;;3.63;;
24443;SDS011;13346;50.984;5.822;2023-04-25T05:19:29;15.20;;;5.20;;
24443;SDS011;13346;50.984;5.822;2023-04-25T05:21:57;6.73;;;4.57;;
24443;SDS011;13346;50.984;5.822;2023-04-25T05:24:25;14.70;;;5.17;;
24443;SDS011;13346;50.984;5.822;2023-04-25T05:26:52;6.33;;;3.63;;
24443;SDS011;13346;50.984;5.822;2023-04-25T05:29:20;19.03;;;5.07;;
24443;SDS011;13346;50.984;5.822;2023-04-25T05:31:47;12.57;;;4.33;;
24443;SDS011;13346;50.984;5.822;2023-04-25T05:34:14;4.27;;;3.87;;
24443;SDS011;13346;50.984;5.822;2023-04-25T05:36:41;12.70;;;4.60;;
24443;SDS011;13346;50.984;5.822;2023-04-25T05:39:09;10.23;;;5.23;;
24443;SDS011;13346;50.984;5.822;2023-04-25T05:41:37;13.43;;;3.77;;
24443;SDS011;13346;50.984;5.822;2023-04-25T05:44:05;6.67;;;3.47;;
24443;SDS011;13346;50.984;5.822;2023-04-25T05:46:32;9.17;;;4.90;;
24443;SDS011;13346;50.984;5.822;2023-04-25T05:48:59;8.27;;;4.37;;
24443;SDS011;13346;50.984;5.822;2023-04-25T05:51:26;13.97;;;4.00;;
24443;SDS011;13346;50.984;5.822;2023-04-25T05:53:53;9.53;;;4.10;;
24443;SDS011;13346;50.984;5.822;2023-04-25T05:56:21;11.33;;;4.30;;
24443;SDS011;13346;50.984;5.822;2023-04-25T05:58:49;14.70;;;4.03;;
24443;SDS011;13346;50.984;5.822;2023-04-25T06:01:16;9.87;;;4.43;;
24443;SDS011;13346;50.984;5.822;2023-04-25T06:03:44;6.90;;;3.53;;
24443;SDS011;13346;50.984;5.822;2023-04-25T06:06:11;11.27;;;3.93;;
24443;SDS011;13346;50.984;5.822;2023-04-25T06:08:39;10.30;;;4.10;;
24443;SDS011;13346;50.984;5.822;2023-04-25T06:11:06;7.87;;;4.07;;
24443;SDS011;13346;50.984;5.822;2023-04-25T06:13:34;11.40;;;3.53;;
24443;SDS011;13346;50.984;5.822;2023-04-25T06:16:02;7.20;;;3.93;;
24443;SDS011;13346;50.984;5.822;2023-04-25T06:18:30;11.00;;;3.03;;
24443;SDS011;13346;50.984;5.822;2023-04-25T06:20:57;11.37;;;3.93;;
24443;SDS011;13346;50.984;5.822;2023-04-25T06:23:24;5.77;;;3.37;;
24443;SDS011;13346;50.984;5.822;2023-04-25T06:25:51;5.57;;;3.30;;
24443;SDS011;13346;50.984;5.822;2023-04-25T06:28:18;11.37;;;4.10;;
24443;SDS011;13346;50.984;5.822;2023-04-25T06:30:47;4.87;;;2.97;;
24443;SDS011;13346;50.984;5.822;2023-04-25T06:33:15;12.67;;;3.17;;
24443;SDS011;13346;50.984;5.822;2023-04-25T06:35:43;8.57;;;3.33;;
24443;SDS011;13346;50.984;5.822;2023-04-25T06:38:10;6.67;;;3.47;;
24443;SDS011;13346;50.984;5.822;2023-04-25T06:40:37;7.57;;;3.33;;
24443;SDS011;13346;50.984;5.822;2023-04-25T06:43:05;10.97;;;3.50;;
24443;SDS011;13346;50.984;5.822;2023-04-25T06:45:32;12.80;;;3.57;;
24443;SDS011;13346;50.984;5.822;2023-04-25T06:47:59;6.73;;;3.23;;
24443;SDS011;13346;50.984;5.822;2023-04-25T06:50:28;6.73;;;2.93;;
24443;SDS011;13346;50.984;5.822;2023-04-25T06:52:55;7.17;;;3.83;;
24443;SDS011;13346;50.984;5.822;2023-04-25T06:55:22;8.77;;;3.10;;
24443;SDS011;13346;50.984;5.822;2023-04-25T06:57:49;8.83;;;3.00;;
24443;SDS011;13346;50.984;5.822;2023-04-25T07:00:17;7.03;;;3.03;;
24443;SDS011;13346;50.984;5.822;2023-04-25T07:02:45;6.47;;;3.57;;
24443;SDS011;13346;50.984;5.822;2023-04-25T07:05:12;7.97;;;3.27;;
24443;SDS011;13346;50.984;5.822;2023-04-25T07:07:40;6.23;;;3.10;;
24443;SDS011;13346;50.984;5.822;2023-04-25T07:10:08;6.80;;;3.90;;
24443;SDS011;13346;50.984;5.822;2023-04-25T07:12:35;8.33;;;3.67;;
24443;SDS011;13346;50.984;5.822;2023-04-25T07:15:03;7.53;;;3.37;;
24443;SDS011;13346;50.984;5.822;2023-04-25T07:17:31;4.83;;;2.80;;
24443;SDS011;13346;50.984;5.822;2023-04-25T07:19:59;8.17;;;2.27;;
24443;SDS011;13346;50.984;5.822;2023-04-25T07:22:28;10.00;;;3.30;;
24443;SDS011;13346;50.984;5.822;2023-04-25T07:24:57;5.40;;;3.13;;
24443;SDS011;13346;50.984;5.822;2023-04-25T07:27:24;8.30;;;3.10;;
24443;SDS011;13346;50.984;5.822;2023-04-25T07:29:51;10.33;;;3.30;;
24443;SDS011;13346;50.984;5.822;2023-04-25T07:32:19;8.77;;;3.17;;
24443;SDS011;13346;50.984;5.822;2023-04-25T07:34:46;3.13;;;2.80;;
24443;SDS011;13346;50.984;5.822;2023-04-25T07:37:13;12.57;;;3.73;;
24443;SDS011;13346;50.984;5.822;2023-04-25T07:39:40;7.03;;;3.03;;
24443;SDS011;13346;50.984;5.822;2023-04-25T07:42:09;6.83;;;2.83;;
24443;SDS011;13346;50.984;5.822;2023-04-25T07:44:36;5.17;;;2.40;;
24443;SDS011;13346;50.984;5.822;2023-04-25T07:47:05;6.17;;;3.00;;
24443;SDS011;13346;50.984;5.822;2023-04-25T07:49:33;6.43;;;1.80;;
24443;SDS011;13346;50.984;5.822;2023-04-25T07:52:01;6.40;;;1.93;;
24443;SDS011;13346;50.984;5.822;2023-04-25T07:54:28;5.07;;;2.10;;
24443;SDS011;13346;50.984;5.822;2023-04-25T07:56:55;5.80;;;2.83;;
24443;SDS011;13346;50.984;5.822;2023-04-25T07:59:24;4.00;;;2.10;;
24443;SDS011;13346;50.984;5.822;2023-04-25T08:01:51;7.83;;;3.00;;
24443;SDS011;13346;50.984;5.822;2023-04-25T08:04:18;7.23;;;2.60;;
24443;SDS011;13346;50.984;5.822;2023-04-25T08:06:46;5.90;;;2.30;;
24443;SDS011;13346;50.984;5.822;2023-04-25T08:09:13;11.20;;;3.00;;
24443;SDS011;13346;50.984;5.822;2023-04-25T08:11:40;6.73;;;2.27;;
24443;SDS011;13346;50.984;5.822;2023-04-25T08:14:08;6.03;;;2.17;;
24443;SDS011;13346;50.984;5.822;2023-04-25T08:16:36;6.97;;;2.40;;
24443;SDS011;13346;50.984;5.822;2023-04-25T08:19:04;3.80;;;2.07;;
24443;SDS011;13346;50.984;5.822;2023-04-25T08:21:31;1.83;;;1.53;;
24443;SDS011;13346;50.984;5.822;2023-04-25T08:23:58;5.47;;;2.43;;
24443;SDS011;13346;50.984;5.822;2023-04-25T08:26:25;4.30;;;2.37;;
24443;SDS011;13346;50.984;5.822;2023-04-25T08:28:53;2.77;;;1.43;;
24443;SDS011;13346;50.984;5.822;2023-04-25T08:31:20;4.50;;;2.27;;
24443;SDS011;13346;50.984;5.822;2023-04-25T08:33:48;3.93;;;2.03;;
24443;SDS011;13346;50.984;5.822;2023-04-25T08:36:17;7.63;;;2.57;;
24443;SDS011;13346;50.984;5.822;2023-04-25T08:38:44;6.93;;;3.13;;
24443;SDS011;13346;50.984;5.822;2023-04-25T08:41:11;8.37;;;2.50;;
24443;SDS011;13346;50.984;5.822;2023-04-25T08:43:41;8.70;;;2.93;;
24443;SDS011;13346;50.984;5.822;2023-04-25T08:46:10;5.93;;;2.97;;
24443;SDS011;13346;50.984;5.822;2023-04-25T08:48:39;2.73;;;2.20;;
24443;SDS011;13346;50.984;5.822;2023-04-25T08:51:10;5.50;;;2.60;;
24443;SDS011;13346;50.984;5.822;2023-04-25T08:53:42;7.87;;;2.60;;
24443;SDS011;13346;50.984;5.822;2023-04-25T08:56:11;4.43;;;2.10;;
24443;SDS011;13346;50.984;5.822;2023-04-25T08:58:42;6.73;;;2.30;;
24443;SDS011;13346;50.984;5.822;2023-04-25T09:01:11;7.10;;;1.90;;
24443;SDS011;13346;50.984;5.822;2023-04-25T09:03:38;7.00;;;2.67;;
24443;SDS011;13346;50.984;5.822;2023-04-25T09:06:06;5.57;;;2.33;;
24443;SDS011;13346;50.984;5.822;2023-04-25T09:08:38;6.63;;;2.90;;
24443;SDS011;13346;50.984;5.822;2023-04-25T09:11:06;3.73;;;2.27;;
24443;SDS011;13346;50.984;5.822;2023-04-25T09:13:33;7.13;;;2.50;;
24443;SDS011;13346;50.984;5.822;2023-04-25T09:16:00;5.33;;;2.60;;
24443;SDS011;13346;50.984;5.822;2023-04-25T09:18:28;4.90;;;2.47;;
24443;SDS011;13346;50.984;5.822;2023-04-25T09:20:58;3.90;;;2.13;;
24443;SDS011;13346;50.984;5.822;2023-04-25T09:23:38;6.30;;;2.10;;
24443;SDS011;13346;50.984;5.822;2023-04-25T09:26:07;4.43;;;1.87;;
24443;SDS011;13346;50.984;5.822;2023-04-25T09:28:35;5.07;;;2.37;;
24443;SDS011;13346;50.984;5.822;2023-04-25T09:31:03;2.57;;;2.37;;
24443;SDS011;13346;50.984;5.822;2023-04-25T09:33:31;5.93;;;2.40;;
24443;SDS011;13346;50.984;5.822;2023-04-25T09:36:04;4.60;;;2.37;;
24443;SDS011;13346;50.984;5.822;2023-04-25T09:38:34;5.77;;;2.53;;
24443;SDS011;13346;50.984;5.822;2023-04-25T09:41:08;5.13;;;2.60;;
24443;SDS011;13346;50.984;5.822;2023-04-25T09:43:36;3.40;;;1.87;;
24443;SDS011;13346;50.984;5.822;2023-04-25T09:46:07;4.50;;;2.57;;
24443;SDS011;13346;50.984;5.822;2023-04-25T09:48:36;5.63;;;2.20;;
24443;SDS011;13346;50.984;5.822;2023-04-25T09:51:04;6.03;;;3.60;;
24443;SDS011;13346;50.984;5.822;2023-04-25T09:53:32;9.40;;;3.20;;
24443;SDS011;13346;50.984;5.822;2023-04-25T09:56:02;7.23;;;3.10;;
24443;SDS011;13346;50.984;5.822;2023-04-25T09:58:32;5.20;;;2.80;;
24443;SDS011;13346;50.984;5.822;2023-04-25T10:01:01;8.33;;;2.50;;
24443;SDS011;13346;50.984;5.822;2023-04-25T10:03:30;4.13;;;1.90;;
24443;SDS011;13346;50.984;5.822;2023-04-25T10:05:59;3.67;;;2.10;;
24443;SDS011;13346;50.984;5.822;2023-04-25T10:08:29;3.07;;;1.80;;
24443;SDS011;13346;50.984;5.822;2023-04-25T10:11:00;4.03;;;2.20;;
24443;SDS011;13346;50.984;5.822;2023-04-25T10:13:30;1.33;;;1.23;;
24443;SDS011;13346;50.984;5.822;2023-04-25T10:15:58;7.32;;;1.67;;
24443;SDS011;13346;50.984;5.822;2023-04-25T10:18:27;4.72;;;1.40;;
24443;SDS011;13346;50.984;5.822;2023-04-25T10:20:55;2.50;;;1.70;;
24443;SDS011;13346;50.984;5.822;2023-04-25T10:23:24;6.27;;;1.53;;
24443;SDS011;13346;50.984;5.822;2023-04-25T10:25:52;2.60;;;1.60;;
24443;SDS011;13346;50.984;5.822;2023-04-25T10:28:21;4.07;;;2.10;;
24443;SDS011;13346;50.984;5.822;2023-04-25T10:30:57;2.87;;;1.97;;
24443;SDS011;13346;50.984;5.822;2023-04-25T10:33:34;3.13;;;1.70;;
24443;SDS011;13346;50.984;5.822;2023-04-25T10:36:09;4.57;;;2.00;;
24443;SDS011;13346;50.984;5.822;2023-04-25T10:38:37;5.47;;;1.77;;
24443;SDS011;13346;50.984;5.822;2023-04-25T10:41:05;5.50;;;2.00;;
24443;SDS011;13346;50.984;5.822;2023-04-25T10:43:39;2.33;;;2.07;;
24443;SDS011;13346;50.984;5.822;2023-04-25T10:46:17;1.83;;;1.73;;
24443;SDS011;13346;50.984;5.822;2023-04-25T10:48:46;4.70;;;1.53;;
24443;SDS011;13346;50.984;5.822;2023-04-25T10:51:18;5.57;;;1.50;;
24443;SDS011;13346;50.984;5.822;2023-04-25T10:53:47;3.07;;;1.70;;
24443;SDS011;13346;50.984;5.822;2023-04-25T10:56:23;5.77;;;2.00;;
24443;SDS011;13346;50.984;5.822;2023-04-25T10:58:57;5.30;;;2.03;;
24443;SDS011;13346;50.984;5.822;2023-04-25T11:01:35;2.60;;;1.40;;
24443;SDS011;13346;50.984;5.822;2023-04-25T11:04:03;4.90;;;1.60;;
24443;SDS011;13346;50.984;5.822;2023-04-25T11:06:32;5.37;;;1.90;;
24443;SDS011;13346;50.984;5.822;2023-04-25T11:09:09;5.80;;;2.13;;
24443;SDS011;13346;50.984;5.822;2023-04-25T11:11:39;1.20;;;1.20;;
24443;SDS011;13346;50.984;5.822;2023-04-25T11:14:07;2.10;;;1.53;;
24443;SDS011;13346;50.984;5.822;2023-04-25T11:16:35;1.93;;;1.70;;
24443;SDS011;13346;50.984;5.822;2023-04-25T11:19:02;4.40;;;2.10;;
24443;SDS011;13346;50.984;5.822;2023-04-25T11:21:30;2.07;;;1.73;;
24443;SDS011;13346;50.984;5.822;2023-04-25T11:23:58;4.90;;;1.98;;
24443;SDS011;13346;50.984;5.822;2023-04-25T11:26:26;6.10;;;2.40;;
24443;SDS011;13346;50.984;5.822;2023-04-25T11:28:56;2.85;;;1.85;;
24443;SDS011;13346;50.984;5.822;2023-04-25T11:31:27;4.90;;;1.85;;
24443;SDS011;13346;50.984;5.822;2023-04-25T11:33:54;2.22;;;1.48;;
24443;SDS011;13346;50.984;5.822;2023-04-25T11:36:23;3.80;;;1.88;;
24443;SDS011;13346;50.984;5.822;2023-04-25T11:38:52;2.92;;;1.80;;
24443;SDS011;13346;50.984;5.822;2023-04-25T11:41:20;2.65;;;1.48;;
24443;SDS011;13346;50.984;5.822;2023-04-25T11:43:47;6.55;;;1.88;;
24443;SDS011;13346;50.984;5.822;2023-04-25T11:46:16;2.58;;;1.60;;
24443;SDS011;13346;50.984;5.822;2023-04-25T11:48:46;2.95;;;1.60;;
24443;SDS011;13346;50.984;5.822;2023-04-25T11:51:15;4.47;;;1.95;;
24443;SDS011;13346;50.984;5.822;2023-04-25T11:53:44;2.45;;;1.40;;
24443;SDS011;13346;50.984;5.822;2023-04-25T11:56:11;7.93;;;1.75;;
24443;SDS011;13346;50.984;5.822;2023-04-25T11:58:55;6.65;;;2.28;;
24443;SDS011;13346;50.984;5.822;2023-04-25T12:01:27;6.40;;;1.75;;
24443;SDS011;13346;50.984;5.822;2023-04-25T12:03:57;1.58;;;1.30;;
24443;SDS011;13346;50.984;5.822;2023-04-25T12:06:28;5.97;;;1.85;;
24443;SDS011;13346;50.984;5.822;2023-04-25T12:08:59;2.35;;;1.50;;
24443;SDS011;13346;50.984;5.822;2023-04-25T12:11:29;2.63;;;1.83;;
24443;SDS011;13346;50.984;5.822;2023-04-25T12:14:01;5.30;;;2.10;;
24443;SDS011;13346;50.984;5.822;2023-04-25T12:16:29;3.63;;;1.92;;
24443;SDS011;13346;50.984;5.822;2023-04-25T12:19:08;6.47;;;1.90;;
24443;SDS011;13346;50.984;5.822;2023-04-25T12:21:35;3.58;;;1.77;;
24443;SDS011;13346;50.984;5.822;2023-04-25T12:24:12;3.70;;;1.50;;
24443;SDS011;13346;50.984;5.822;2023-04-25T12:26:47;5.10;;;1.75;;
24443;SDS011;13346;50.984;5.822;2023-04-25T12:29:18;4.35;;;1.88;;
24443;SDS011;13346;50.984;5.822;2023-04-25T12:31:47;5.45;;;2.13;;
24443;SDS011;13346;50.984;5.822;2023-04-25T12:34:16;2.53;;;2.30;;
24443;SDS011;13346;50.984;5.822;2023-04-25T12:36:44;6.72;;;1.92;;
24443;SDS011;13346;50.984;5.822;2023-04-25T12:39:14;2.95;;;1.88;;
24443;SDS011;13346;50.984;5.822;2023-04-25T12:41:42;4.45;;;1.95;;
24443;SDS011;13346;50.984;5.822;2023-04-25T12:44:10;2.33;;;1.27;;
24443;SDS011;13346;50.984;5.822;2023-04-25T12:46:38;3.20;;;1.67;;
24443;SDS011;13346;50.984;5.822;2023-04-25T12:49:07;2.38;;;1.45;;
24443;SDS011;13346;50.984;5.822;2023-04-25T12:51:36;2.55;;;1.52;;
24443;SDS011;13346;50.984;5.822;2023-04-25T12:54:03;2.20;;;1.27;;
24443;SDS011;13346;50.984;5.822;2023-04-25T12:56:32;1.40;;;1.30;;
24443;SDS011;13346;50.984;5.822;2023-04-25T12:58:59;3.67;;;1.17;;
24443;SDS011;13346;50.984;5.822;2023-04-25T13:01:28;2.87;;;1.47;;
24443;SDS011;13346;50.984;5.822;2023-04-25T13:03:55;3.37;;;1.50;;
24443;SDS011;13346;50.984;5.822;2023-04-25T13:06:23;2.07;;;1.77;;
24443;SDS011;13346;50.984;5.822;2023-04-25T13:08:52;1.83;;;1.37;;
24443;SDS011;13346;50.984;5.822;2023-04-25T13:11:20;2.50;;;1.40;;
24443;SDS011;13346;50.984;5.822;2023-04-25T13:13:47;3.10;;;1.73;;
24443;SDS011;13346;50.984;5.822;2023-04-25T13:16:14;2.63;;;1.03;;
24443;SDS011;13346;50.984;5.822;2023-04-25T13:18:41;1.70;;;1.57;;
24443;SDS011;13346;50.984;5.822;2023-04-25T13:21:09;1.83;;;1.47;;
24443;SDS011;13346;50.984;5.822;2023-04-25T13:23:37;2.77;;;1.57;;
24443;SDS011;13346;50.984;5.822;2023-04-25T13:26:05;2.77;;;2.13;;
24443;SDS011;13346;50.984;5.822;2023-04-25T13:28:32;1.47;;;1.23;;
24443;SDS011;13346;50.984;5.822;2023-04-25T13:31:00;3.87;;;1.90;;
24443;SDS011;13346;50.984;5.822;2023-04-25T13:33:27;2.23;;;2.13;;
24443;SDS011;13346;50.984;5.822;2023-04-25T13:35:55;2.92;;;1.60;;
24443;SDS011;13346;50.984;5.822;2023-04-25T13:38:22;1.87;;;0.93;;
24443;SDS011;13346;50.984;5.822;2023-04-25T13:40:50;2.38;;;1.48;;
24443;SDS011;13346;50.984;5.822;2023-04-25T13:43:20;2.40;;;1.45;;
24443;SDS011;13346;50.984;5.822;2023-04-25T13:45:48;2.63;;;1.48;;
24443;SDS011;13346;50.984;5.822;2023-04-25T13:48:15;1.10;;;1.00;;
24443;SDS011;13346;50.984;5.822;2023-04-25T13:50:42;6.60;;;1.80;;
24443;SDS011;13346;50.984;5.822;2023-04-25T13:53:10;4.40;;;2.20;;
24443;SDS011;13346;50.984;5.822;2023-04-25T13:55:37;3.00;;;1.47;;
24443;SDS011;13346;50.984;5.822;2023-04-25T13:58:04;3.20;;;1.90;;
24443;SDS011;13346;50.984;5.822;2023-04-25T14:00:37;1.30;;;1.20;;
24443;SDS011;13346;50.984;5.822;2023-04-25T14:03:05;3.23;;;1.43;;
24443;SDS011;13346;50.984;5.822;2023-04-25T14:05:33;2.50;;;1.60;;
24443;SDS011;13346;50.984;5.822;2023-04-25T14:08:05;3.80;;;1.40;;
24443;SDS011;13346;50.984;5.822;2023-04-25T14:10:33;2.33;;;1.10;;
24443;SDS011;13346;50.984;5.822;2023-04-25T14:13:00;4.03;;;1.57;;
24443;SDS011;13346;50.984;5.822;2023-04-25T14:15:28;4.37;;;1.60;;
24443;SDS011;13346;50.984;5.822;2023-04-25T14:17:58;1.23;;;1.23;;
24443;SDS011;13346;50.984;5.822;2023-04-25T14:20:25;4.43;;;1.20;;
24443;SDS011;13346;50.984;5.822;2023-04-25T14:22:53;2.40;;;1.83;;
24443;SDS011;13346;50.984;5.822;2023-04-25T14:25:21;6.13;;;1.50;;
24443;SDS011;13346;50.984;5.822;2023-04-25T14:27:48;2.67;;;1.83;;
24443;SDS011;13346;50.984;5.822;2023-04-25T14:30:16;1.30;;;1.20;;
24443;SDS011;13346;50.984;5.822;2023-04-25T14:32:43;1.70;;;1.58;;
24443;SDS011;13346;50.984;5.822;2023-04-25T14:35:12;4.03;;;1.58;;
24443;SDS011;13346;50.984;5.822;2023-04-25T14:37:40;0.90;;;0.90;;
24443;SDS011;13346;50.984;5.822;2023-04-25T14:40:07;1.25;;;1.20;;
24443;SDS011;13346;50.984;5.822;2023-04-25T14:42:38;1.20;;;1.10;;
24443;SDS011;13346;50.984;5.822;2023-04-25T14:45:05;3.43;;;1.10;;
24443;SDS011;13346;50.984;5.822;2023-04-25T14:47:34;2.87;;;1.00;;
24443;SDS011;13346;50.984;5.822;2023-04-25T14:50:01;1.20;;;1.10;;
24443;SDS011;13346;50.984;5.822;2023-04-25T14:52:31;1.27;;;1.17;;